sensor_id;sensor_type;location;lat;lon;timestamp;P1;durP1;ratioP1;P2;durP2;ratioP2
78893;SDS011;68282;42.698;23.350;2024-02-26T00:00:34;34.45;;;21.30;;
78893;SDS011;68282;42.698;23.350;2024-02-26T00:03:00;36.25;;;20.63;;
78893;SDS011;68282;42.698;23.350;2024-02-26T00:05:26;32.60;;;20.20;;
78893;SDS011;68282;42.698;23.350;2024-02-26T00:07:51;37.72;;;19.08;;
78893;SDS011;68282;42.698;23.350;2024-02-26T00:10:17;33.85;;;20.40;;
78893;SDS011;68282;42.698;23.350;2024-02-26T00:12:42;32.70;;;21.17;;
78893;SDS011;68282;42.698;23.350;2024-02-26T00:15:08;31.90;;;20.27;;
78893;SDS011;68282;42.698;23.350;2024-02-26T00:17:35;30.98;;;18.42;;
78893;SDS011;68282;42.698;23.350;2024-02-26T00:20:01;31.70;;;19.92;;
78893;SDS011;68282;42.698;23.350;2024-02-26T00:22:33;40.10;;;19.63;;
78893;SDS011;68282;42.698;23.350;2024-02-26T00:25:02;30.92;;;17.35;;
78893;SDS011;68282;42.698;23.350;2024-02-26T00:27:28;30.67;;;18.90;;
78893;SDS011;68282;42.698;23.350;2024-02-26T00:29:54;34.33;;;18.67;;
78893;SDS011;68282;42.698;23.350;2024-02-26T00:32:20;34.47;;;18.35;;
78893;SDS011;68282;42.698;23.350;2024-02-26T00:34:45;33.65;;;17.48;;
78893;SDS011;68282;42.698;23.350;2024-02-26T00:37:11;37.95;;;20.35;;
78893;SDS011;68282;42.698;23.350;2024-02-26T00:39:36;39.20;;;22.55;;
78893;SDS011;68282;42.698;23.350;2024-02-26T00:42:02;39.60;;;22.83;;
78893;SDS011;68282;42.698;23.350;2024-02-26T00:44:28;42.20;;;24.73;;
78893;SDS011;68282;42.698;23.350;2024-02-26T00:46:53;34.67;;;22.27;;
78893;SDS011;68282;42.698;23.350;2024-02-26T00:49:19;40.92;;;24.17;;
78893;SDS011;68282;42.698;23.350;2024-02-26T00:51:44;40.70;;;25.27;;
78893;SDS011;68282;42.698;23.350;2024-02-26T00:54:10;36.05;;;25.92;;
78893;SDS011;68282;42.698;23.350;2024-02-26T00:56:35;50.17;;;31.08;;
78893;SDS011;68282;42.698;23.350;2024-02-26T00:59:01;42.10;;;26.77;;
78893;SDS011;68282;42.698;23.350;2024-02-26T01:01:26;38.72;;;27.60;;
78893;SDS011;68282;42.698;23.350;2024-02-26T01:03:52;38.45;;;22.45;;
78893;SDS011;68282;42.698;23.350;2024-02-26T01:06:17;34.80;;;23.63;;
78893;SDS011;68282;42.698;23.350;2024-02-26T01:08:43;37.88;;;23.52;;
78893;SDS011;68282;42.698;23.350;2024-02-26T01:11:08;38.47;;;21.95;;
78893;SDS011;68282;42.698;23.350;2024-02-26T01:13:34;31.05;;;22.67;;
78893;SDS011;68282;42.698;23.350;2024-02-26T01:16:01;31.52;;;21.50;;
78893;SDS011;68282;42.698;23.350;2024-02-26T01:18:27;31.38;;;21.75;;
78893;SDS011;68282;42.698;23.350;2024-02-26T01:20:53;35.75;;;20.63;;
78893;SDS011;68282;42.698;23.350;2024-02-26T01:23:19;30.08;;;18.30;;
78893;SDS011;68282;42.698;23.350;2024-02-26T01:25:45;30.30;;;18.35;;
78893;SDS011;68282;42.698;23.350;2024-02-26T01:28:11;31.45;;;19.33;;
78893;SDS011;68282;42.698;23.350;2024-02-26T01:30:38;28.38;;;18.70;;
78893;SDS011;68282;42.698;23.350;2024-02-26T01:33:03;34.15;;;18.80;;
78893;SDS011;68282;42.698;23.350;2024-02-26T01:35:30;33.30;;;17.85;;
78893;SDS011;68282;42.698;23.350;2024-02-26T01:37:55;28.88;;;18.58;;
78893;SDS011;68282;42.698;23.350;2024-02-26T01:40:26;34.10;;;18.30;;
78893;SDS011;68282;42.698;23.350;2024-02-26T01:42:52;28.17;;;18.55;;
78893;SDS011;68282;42.698;23.350;2024-02-26T01:45:18;27.65;;;17.83;;
78893;SDS011;68282;42.698;23.350;2024-02-26T01:47:52;31.25;;;18.23;;
78893;SDS011;68282;42.698;23.350;2024-02-26T01:50:18;27.17;;;17.27;;
78893;SDS011;68282;42.698;23.350;2024-02-26T01:52:45;32.65;;;19.88;;
78893;SDS011;68282;42.698;23.350;2024-02-26T01:55:13;29.30;;;17.70;;
78893;SDS011;68282;42.698;23.350;2024-02-26T02:00:08;30.05;;;18.30;;
78893;SDS011;68282;42.698;23.350;2024-02-26T02:02:35;31.67;;;19.33;;
78893;SDS011;68282;42.698;23.350;2024-02-26T02:05:01;32.35;;;19.27;;
78893;SDS011;68282;42.698;23.350;2024-02-26T02:07:27;33.65;;;19.77;;
78893;SDS011;68282;42.698;23.350;2024-02-26T02:09:54;26.77;;;17.40;;
78893;SDS011;68282;42.698;23.350;2024-02-26T02:12:19;22.67;;;16.08;;
78893;SDS011;68282;42.698;23.350;2024-02-26T02:14:46;26.88;;;16.25;;
78893;SDS011;68282;42.698;23.350;2024-02-26T02:17:12;29.92;;;18.10;;
78893;SDS011;68282;42.698;23.350;2024-02-26T02:19:37;27.95;;;16.70;;
78893;SDS011;68282;42.698;23.350;2024-02-26T02:22:03;29.73;;;17.35;;
78893;SDS011;68282;42.698;23.350;2024-02-26T02:24:28;28.35;;;15.57;;
78893;SDS011;68282;42.698;23.350;2024-02-26T02:26:54;26.70;;;15.57;;
78893;SDS011;68282;42.698;23.350;2024-02-26T02:29:20;23.90;;;15.50;;
78893;SDS011;68282;42.698;23.350;2024-02-26T02:31:46;26.38;;;15.93;;
78893;SDS011;68282;42.698;23.350;2024-02-26T02:34:13;24.58;;;15.27;;
78893;SDS011;68282;42.698;23.350;2024-02-26T02:36:52;24.48;;;15.88;;
78893;SDS011;68282;42.698;23.350;2024-02-26T02:39:18;26.08;;;16.30;;
78893;SDS011;68282;42.698;23.350;2024-02-26T02:41:44;19.33;;;14.30;;
78893;SDS011;68282;42.698;23.350;2024-02-26T02:44:10;22.40;;;14.90;;
78893;SDS011;68282;42.698;23.350;2024-02-26T02:46:35;27.95;;;16.77;;
78893;SDS011;68282;42.698;23.350;2024-02-26T02:49:01;30.60;;;17.42;;
78893;SDS011;68282;42.698;23.350;2024-02-26T02:51:26;28.63;;;15.68;;
78893;SDS011;68282;42.698;23.350;2024-02-26T02:53:52;23.92;;;16.25;;
78893;SDS011;68282;42.698;23.350;2024-02-26T02:56:17;31.08;;;17.27;;
78893;SDS011;68282;42.698;23.350;2024-02-26T02:58:43;25.80;;;16.42;;
78893;SDS011;68282;42.698;23.350;2024-02-26T03:01:09;25.35;;;15.68;;
78893;SDS011;68282;42.698;23.350;2024-02-26T03:03:34;27.60;;;17.02;;
78893;SDS011;68282;42.698;23.350;2024-02-26T03:06:01;28.20;;;16.85;;
78893;SDS011;68282;42.698;23.350;2024-02-26T03:08:27;24.88;;;16.67;;
78893;SDS011;68282;42.698;23.350;2024-02-26T03:10:53;26.55;;;16.35;;
78893;SDS011;68282;42.698;23.350;2024-02-26T03:13:20;30.60;;;16.63;;
78893;SDS011;68282;42.698;23.350;2024-02-26T03:15:46;29.50;;;16.27;;
78893;SDS011;68282;42.698;23.350;2024-02-26T03:18:11;24.75;;;14.02;;
78893;SDS011;68282;42.698;23.350;2024-02-26T03:20:37;22.92;;;14.30;;
78893;SDS011;68282;42.698;23.350;2024-02-26T03:23:03;22.83;;;14.38;;
78893;SDS011;68282;42.698;23.350;2024-02-26T03:25:29;27.15;;;15.40;;
78893;SDS011;68282;42.698;23.350;2024-02-26T03:27:54;26.75;;;15.15;;
78893;SDS011;68282;42.698;23.350;2024-02-26T03:30:20;30.23;;;16.17;;
78893;SDS011;68282;42.698;23.350;2024-02-26T03:32:45;21.58;;;14.18;;
78893;SDS011;68282;42.698;23.350;2024-02-26T03:35:12;26.73;;;15.13;;
78893;SDS011;68282;42.698;23.350;2024-02-26T03:37:37;24.85;;;14.88;;
78893;SDS011;68282;42.698;23.350;2024-02-26T03:40:03;31.05;;;15.95;;
78893;SDS011;68282;42.698;23.350;2024-02-26T03:42:29;24.70;;;14.45;;
78893;SDS011;68282;42.698;23.350;2024-02-26T03:44:54;20.27;;;13.02;;
78893;SDS011;68282;42.698;23.350;2024-02-26T03:47:20;23.80;;;14.75;;
78893;SDS011;68282;42.698;23.350;2024-02-26T03:49:45;29.20;;;17.48;;
78893;SDS011;68282;42.698;23.350;2024-02-26T03:52:11;24.67;;;14.57;;
78893;SDS011;68282;42.698;23.350;2024-02-26T03:54:36;23.88;;;16.17;;
78893;SDS011;68282;42.698;23.350;2024-02-26T03:57:02;24.63;;;15.82;;
78893;SDS011;68282;42.698;23.350;2024-02-26T03:59:27;26.55;;;17.08;;
78893;SDS011;68282;42.698;23.350;2024-02-26T04:01:53;25.38;;;16.55;;
78893;SDS011;68282;42.698;23.350;2024-02-26T04:04:18;28.73;;;17.55;;
78893;SDS011;68282;42.698;23.350;2024-02-26T04:06:44;27.40;;;17.42;;
78893;SDS011;68282;42.698;23.350;2024-02-26T04:09:11;32.47;;;18.83;;
78893;SDS011;68282;42.698;23.350;2024-02-26T04:11:38;34.92;;;21.55;;
78893;SDS011;68282;42.698;23.350;2024-02-26T04:14:04;33.70;;;21.23;;
78893;SDS011;68282;42.698;23.350;2024-02-26T04:16:31;29.92;;;20.40;;
78893;SDS011;68282;42.698;23.350;2024-02-26T04:18:56;29.38;;;19.90;;
78893;SDS011;68282;42.698;23.350;2024-02-26T04:21:22;29.58;;;19.58;;
78893;SDS011;68282;42.698;23.350;2024-02-26T04:23:47;35.78;;;19.77;;
78893;SDS011;68282;42.698;23.350;2024-02-26T04:26:14;33.45;;;20.08;;
78893;SDS011;68282;42.698;23.350;2024-02-26T04:28:39;41.58;;;24.63;;
78893;SDS011;68282;42.698;23.350;2024-02-26T04:31:05;41.83;;;24.40;;
78893;SDS011;68282;42.698;23.350;2024-02-26T04:33:33;37.38;;;22.33;;
78893;SDS011;68282;42.698;23.350;2024-02-26T04:35:59;38.95;;;23.27;;
78893;SDS011;68282;42.698;23.350;2024-02-26T04:38:25;36.42;;;23.63;;
78893;SDS011;68282;42.698;23.350;2024-02-26T04:40:51;32.00;;;21.13;;
78893;SDS011;68282;42.698;23.350;2024-02-26T04:43:16;32.47;;;21.10;;
78893;SDS011;68282;42.698;23.350;2024-02-26T04:45:43;37.38;;;23.58;;
78893;SDS011;68282;42.698;23.350;2024-02-26T04:48:08;43.45;;;25.58;;
78893;SDS011;68282;42.698;23.350;2024-02-26T04:50:34;33.95;;;23.45;;
78893;SDS011;68282;42.698;23.350;2024-02-26T04:52:59;37.58;;;22.73;;
78893;SDS011;68282;42.698;23.350;2024-02-26T04:55:25;34.88;;;23.23;;
78893;SDS011;68282;42.698;23.350;2024-02-26T04:57:50;33.60;;;20.73;;
78893;SDS011;68282;42.698;23.350;2024-02-26T05:00:16;34.15;;;22.33;;
78893;SDS011;68282;42.698;23.350;2024-02-26T05:02:41;34.25;;;21.10;;
78893;SDS011;68282;42.698;23.350;2024-02-26T05:05:07;33.05;;;20.88;;
78893;SDS011;68282;42.698;23.350;2024-02-26T05:07:40;34.85;;;20.83;;
78893;SDS011;68282;42.698;23.350;2024-02-26T05:10:10;34.60;;;20.10;;
78893;SDS011;68282;42.698;23.350;2024-02-26T05:12:36;30.77;;;18.73;;
78893;SDS011;68282;42.698;23.350;2024-02-26T05:15:02;32.05;;;18.08;;
78893;SDS011;68282;42.698;23.350;2024-02-26T05:17:28;25.75;;;16.70;;
78893;SDS011;68282;42.698;23.350;2024-02-26T05:19:53;29.20;;;17.23;;
78893;SDS011;68282;42.698;23.350;2024-02-26T05:22:19;23.83;;;15.27;;
78893;SDS011;68282;42.698;23.350;2024-02-26T05:24:44;24.92;;;16.23;;
78893;SDS011;68282;42.698;23.350;2024-02-26T05:27:10;28.40;;;16.23;;
78893;SDS011;68282;42.698;23.350;2024-02-26T05:29:37;32.42;;;16.73;;
78893;SDS011;68282;42.698;23.350;2024-02-26T05:32:03;25.38;;;15.35;;
78893;SDS011;68282;42.698;23.350;2024-02-26T05:34:29;28.77;;;17.00;;
78893;SDS011;68282;42.698;23.350;2024-02-26T05:36:55;30.15;;;15.82;;
78893;SDS011;68282;42.698;23.350;2024-02-26T05:39:21;25.50;;;16.52;;
78893;SDS011;68282;42.698;23.350;2024-02-26T05:41:46;30.10;;;17.67;;
78893;SDS011;68282;42.698;23.350;2024-02-26T05:44:12;30.42;;;15.65;;
78893;SDS011;68282;42.698;23.350;2024-02-26T05:46:37;25.13;;;15.60;;
78893;SDS011;68282;42.698;23.350;2024-02-26T05:49:03;27.40;;;16.42;;
78893;SDS011;68282;42.698;23.350;2024-02-26T05:51:28;24.75;;;14.85;;
78893;SDS011;68282;42.698;23.350;2024-02-26T05:53:54;25.88;;;16.20;;
78893;SDS011;68282;42.698;23.350;2024-02-26T05:56:23;24.48;;;15.45;;
78893;SDS011;68282;42.698;23.350;2024-02-26T05:58:48;26.85;;;15.02;;
78893;SDS011;68282;42.698;23.350;2024-02-26T06:01:17;28.92;;;16.15;;
78893;SDS011;68282;42.698;23.350;2024-02-26T06:03:43;24.77;;;15.65;;
78893;SDS011;68282;42.698;23.350;2024-02-26T06:06:10;27.23;;;16.20;;
78893;SDS011;68282;42.698;23.350;2024-02-26T06:08:35;26.88;;;15.98;;
78893;SDS011;68282;42.698;23.350;2024-02-26T06:11:04;23.77;;;14.80;;
78893;SDS011;68282;42.698;23.350;2024-02-26T06:13:32;26.75;;;15.50;;
78893;SDS011;68282;42.698;23.350;2024-02-26T06:15:57;24.10;;;14.80;;
78893;SDS011;68282;42.698;23.350;2024-02-26T06:18:22;24.25;;;16.02;;
78893;SDS011;68282;42.698;23.350;2024-02-26T06:20:48;30.35;;;17.27;;
78893;SDS011;68282;42.698;23.350;2024-02-26T06:23:14;33.03;;;19.35;;
78893;SDS011;68282;42.698;23.350;2024-02-26T06:25:39;33.78;;;19.55;;
78893;SDS011;68282;42.698;23.350;2024-02-26T06:28:06;29.60;;;19.83;;
78893;SDS011;68282;42.698;23.350;2024-02-26T06:30:31;26.27;;;18.55;;
78893;SDS011;68282;42.698;23.350;2024-02-26T06:32:57;29.95;;;19.75;;
78893;SDS011;68282;42.698;23.350;2024-02-26T06:35:22;39.08;;;23.30;;
78893;SDS011;68282;42.698;23.350;2024-02-26T06:37:48;37.40;;;22.20;;
78893;SDS011;68282;42.698;23.350;2024-02-26T06:40:15;34.88;;;22.00;;
78893;SDS011;68282;42.698;23.350;2024-02-26T06:42:41;34.67;;;20.30;;
78893;SDS011;68282;42.698;23.350;2024-02-26T06:45:08;37.78;;;20.58;;
78893;SDS011;68282;42.698;23.350;2024-02-26T06:47:34;31.42;;;20.90;;
78893;SDS011;68282;42.698;23.350;2024-02-26T06:49:59;31.73;;;21.05;;
78893;SDS011;68282;42.698;23.350;2024-02-26T06:52:26;27.00;;;18.13;;
78893;SDS011;68282;42.698;23.350;2024-02-26T06:54:52;31.55;;;16.88;;
78893;SDS011;68282;42.698;23.350;2024-02-26T06:57:21;25.38;;;17.05;;
78893;SDS011;68282;42.698;23.350;2024-02-26T06:59:47;28.73;;;16.23;;
78893;SDS011;68282;42.698;23.350;2024-02-26T07:02:15;28.75;;;16.92;;
78893;SDS011;68282;42.698;23.350;2024-02-26T07:04:44;29.98;;;16.58;;
78893;SDS011;68282;42.698;23.350;2024-02-26T07:07:11;31.02;;;16.70;;
78893;SDS011;68282;42.698;23.350;2024-02-26T07:09:37;27.75;;;16.25;;
78893;SDS011;68282;42.698;23.350;2024-02-26T07:12:02;31.58;;;15.70;;
78893;SDS011;68282;42.698;23.350;2024-02-26T07:14:28;29.65;;;16.45;;
78893;SDS011;68282;42.698;23.350;2024-02-26T07:16:54;24.40;;;16.05;;
78893;SDS011;68282;42.698;23.350;2024-02-26T07:19:19;28.98;;;16.70;;
78893;SDS011;68282;42.698;23.350;2024-02-26T07:21:45;30.92;;;21.00;;
78893;SDS011;68282;42.698;23.350;2024-02-26T07:24:10;38.40;;;20.48;;
78893;SDS011;68282;42.698;23.350;2024-02-26T07:26:36;41.60;;;22.52;;
78893;SDS011;68282;42.698;23.350;2024-02-26T07:29:07;36.03;;;21.42;;
78893;SDS011;68282;42.698;23.350;2024-02-26T07:31:34;39.33;;;22.13;;
78893;SDS011;68282;42.698;23.350;2024-02-26T07:34:02;39.13;;;22.67;;
78893;SDS011;68282;42.698;23.350;2024-02-26T07:36:28;34.30;;;19.27;;
78893;SDS011;68282;42.698;23.350;2024-02-26T07:38:54;30.48;;;16.88;;
78893;SDS011;68282;42.698;23.350;2024-02-26T07:41:19;31.50;;;18.65;;
78893;SDS011;68282;42.698;23.350;2024-02-26T07:43:45;32.75;;;19.08;;
78893;SDS011;68282;42.698;23.350;2024-02-26T07:46:11;28.65;;;18.13;;
78893;SDS011;68282;42.698;23.350;2024-02-26T07:48:38;30.38;;;18.10;;
78893;SDS011;68282;42.698;23.350;2024-02-26T07:51:03;27.77;;;17.77;;
78893;SDS011;68282;42.698;23.350;2024-02-26T07:53:32;30.55;;;19.33;;
78893;SDS011;68282;42.698;23.350;2024-02-26T07:55:58;29.92;;;18.23;;
78893;SDS011;68282;42.698;23.350;2024-02-26T07:58:24;30.42;;;19.48;;
78893;SDS011;68282;42.698;23.350;2024-02-26T08:00:49;29.38;;;17.88;;
78893;SDS011;68282;42.698;23.350;2024-02-26T08:03:15;29.00;;;17.85;;
78893;SDS011;68282;42.698;23.350;2024-02-26T08:05:44;31.52;;;18.20;;
78893;SDS011;68282;42.698;23.350;2024-02-26T08:08:11;33.55;;;20.23;;
78893;SDS011;68282;42.698;23.350;2024-02-26T08:10:36;29.95;;;19.67;;
78893;SDS011;68282;42.698;23.350;2024-02-26T08:13:04;31.63;;;19.75;;
78893;SDS011;68282;42.698;23.350;2024-02-26T08:15:31;25.98;;;16.17;;
78893;SDS011;68282;42.698;23.350;2024-02-26T08:17:59;27.85;;;16.90;;
78893;SDS011;68282;42.698;23.350;2024-02-26T08:20:29;30.83;;;18.80;;
78893;SDS011;68282;42.698;23.350;2024-02-26T08:22:56;25.15;;;16.42;;
78893;SDS011;68282;42.698;23.350;2024-02-26T08:25:22;36.95;;;18.38;;
78893;SDS011;68282;42.698;23.350;2024-02-26T08:27:48;27.63;;;16.38;;
78893;SDS011;68282;42.698;23.350;2024-02-26T08:30:14;21.42;;;14.98;;
78893;SDS011;68282;42.698;23.350;2024-02-26T08:35:14;21.20;;;15.38;;
78893;SDS011;68282;42.698;23.350;2024-02-26T08:37:43;26.05;;;15.27;;
78893;SDS011;68282;42.698;23.350;2024-02-26T08:40:10;29.40;;;17.20;;
78893;SDS011;68282;42.698;23.350;2024-02-26T08:42:39;25.77;;;16.73;;
78893;SDS011;68282;42.698;23.350;2024-02-26T08:45:07;27.83;;;16.58;;
78893;SDS011;68282;42.698;23.350;2024-02-26T08:53:03;34.08;;;18.02;;
78893;SDS011;68282;42.698;23.350;2024-02-26T08:55:39;30.40;;;17.90;;
78893;SDS011;68282;42.698;23.350;2024-02-26T08:58:06;26.98;;;16.48;;
78893;SDS011;68282;42.698;23.350;2024-02-26T09:00:32;29.50;;;17.27;;
78893;SDS011;68282;42.698;23.350;2024-02-26T09:02:57;25.52;;;13.95;;
78893;SDS011;68282;42.698;23.350;2024-02-26T09:05:23;17.50;;;11.50;;
78893;SDS011;68282;42.698;23.350;2024-02-26T09:07:49;20.30;;;10.90;;
78893;SDS011;68282;42.698;23.350;2024-02-26T09:10:16;19.08;;;11.93;;
78893;SDS011;68282;42.698;23.350;2024-02-26T09:12:42;20.08;;;13.20;;
78893;SDS011;68282;42.698;23.350;2024-02-26T09:15:08;24.85;;;13.70;;
78893;SDS011;68282;42.698;23.350;2024-02-26T09:17:34;22.13;;;12.77;;
78893;SDS011;68282;42.698;23.350;2024-02-26T09:19:59;21.17;;;14.02;;
78893;SDS011;68282;42.698;23.350;2024-02-26T09:22:25;19.10;;;13.63;;
78893;SDS011;68282;42.698;23.350;2024-02-26T09:24:50;24.40;;;13.02;;
78893;SDS011;68282;42.698;23.350;2024-02-26T09:27:17;18.75;;;11.77;;
78893;SDS011;68282;42.698;23.350;2024-02-26T09:29:43;17.52;;;10.98;;
78893;SDS011;68282;42.698;23.350;2024-02-26T09:32:08;19.08;;;11.15;;
78893;SDS011;68282;42.698;23.350;2024-02-26T09:42:21;9.07;;;6.25;;
78893;SDS011;68282;42.698;23.350;2024-02-26T09:44:54;9.45;;;6.03;;
78893;SDS011;68282;42.698;23.350;2024-02-26T09:47:26;12.45;;;6.28;;
78893;SDS011;68282;42.698;23.350;2024-02-26T09:49:59;7.38;;;5.57;;
78893;SDS011;68282;42.698;23.350;2024-02-26T09:52:28;10.20;;;6.03;;
78893;SDS011;68282;42.698;23.350;2024-02-26T09:54:56;6.10;;;5.43;;
78893;SDS011;68282;42.698;23.350;2024-02-26T09:57:23;7.32;;;5.68;;
78893;SDS011;68282;42.698;23.350;2024-02-26T09:59:50;9.82;;;6.32;;
78893;SDS011;68282;42.698;23.350;2024-02-26T10:02:20;10.18;;;5.80;;
78893;SDS011;68282;42.698;23.350;2024-02-26T10:07:16;10.73;;;5.78;;
78893;SDS011;68282;42.698;23.350;2024-02-26T10:09:42;8.15;;;5.75;;
78893;SDS011;68282;42.698;23.350;2024-02-26T10:12:08;7.75;;;5.65;;
78893;SDS011;68282;42.698;23.350;2024-02-26T10:14:40;11.63;;;5.90;;
78893;SDS011;68282;42.698;23.350;2024-02-26T10:17:07;7.57;;;5.28;;
78893;SDS011;68282;42.698;23.350;2024-02-26T10:19:36;9.77;;;5.93;;
78893;SDS011;68282;42.698;23.350;2024-02-26T10:22:01;7.90;;;5.15;;
78893;SDS011;68282;42.698;23.350;2024-02-26T10:24:28;10.38;;;5.43;;
78893;SDS011;68282;42.698;23.350;2024-02-26T10:26:55;10.63;;;5.82;;
78893;SDS011;68282;42.698;23.350;2024-02-26T10:29:21;6.45;;;4.38;;
78893;SDS011;68282;42.698;23.350;2024-02-26T10:31:50;9.02;;;5.15;;
78893;SDS011;68282;42.698;23.350;2024-02-26T10:34:17;8.40;;;5.70;;
78893;SDS011;68282;42.698;23.350;2024-02-26T10:36:43;8.77;;;5.15;;
78893;SDS011;68282;42.698;23.350;2024-02-26T10:39:11;8.20;;;5.45;;
78893;SDS011;68282;42.698;23.350;2024-02-26T10:41:39;12.18;;;5.72;;
78893;SDS011;68282;42.698;23.350;2024-02-26T10:44:10;10.75;;;5.53;;
78893;SDS011;68282;42.698;23.350;2024-02-26T10:46:37;9.57;;;6.97;;
78893;SDS011;68282;42.698;23.350;2024-02-26T10:49:03;9.05;;;5.57;;
78893;SDS011;68282;42.698;23.350;2024-02-26T10:51:31;11.82;;;6.55;;
78893;SDS011;68282;42.698;23.350;2024-02-26T10:53:59;10.50;;;6.32;;
78893;SDS011;68282;42.698;23.350;2024-02-26T10:56:29;8.52;;;5.43;;
78893;SDS011;68282;42.698;23.350;2024-02-26T10:59:00;8.13;;;4.60;;
78893;SDS011;68282;42.698;23.350;2024-02-26T11:01:27;8.63;;;5.03;;
78893;SDS011;68282;42.698;23.350;2024-02-26T11:03:57;13.88;;;6.30;;
78893;SDS011;68282;42.698;23.350;2024-02-26T11:06:24;8.38;;;5.45;;
78893;SDS011;68282;42.698;23.350;2024-02-26T11:08:51;14.30;;;6.97;;
78893;SDS011;68282;42.698;23.350;2024-02-26T11:11:18;10.98;;;6.20;;
78893;SDS011;68282;42.698;23.350;2024-02-26T11:13:45;7.57;;;4.85;;
78893;SDS011;68282;42.698;23.350;2024-02-26T11:16:18;10.55;;;5.22;;
78893;SDS011;68282;42.698;23.350;2024-02-26T11:18:48;8.15;;;4.53;;
78893;SDS011;68282;42.698;23.350;2024-02-26T11:21:17;7.95;;;4.65;;
78893;SDS011;68282;42.698;23.350;2024-02-26T11:23:55;9.05;;;4.65;;
78893;SDS011;68282;42.698;23.350;2024-02-26T11:26:21;8.75;;;4.70;;
78893;SDS011;68282;42.698;23.350;2024-02-26T11:28:52;5.00;;;3.88;;
78893;SDS011;68282;42.698;23.350;2024-02-26T11:31:24;9.55;;;5.88;;
78893;SDS011;68282;42.698;23.350;2024-02-26T11:33:53;9.82;;;4.85;;
78893;SDS011;68282;42.698;23.350;2024-02-26T11:36:19;7.15;;;4.53;;
78893;SDS011;68282;42.698;23.350;2024-02-26T11:38:46;6.95;;;5.35;;
78893;SDS011;68282;42.698;23.350;2024-02-26T11:41:15;7.63;;;5.30;;
78893;SDS011;68282;42.698;23.350;2024-02-26T11:43:51;7.25;;;5.32;;
78893;SDS011;68282;42.698;23.350;2024-02-26T11:46:32;7.43;;;5.22;;
78893;SDS011;68282;42.698;23.350;2024-02-26T11:49:02;9.50;;;5.78;;
78893;SDS011;68282;42.698;23.350;2024-02-26T11:51:50;8.80;;;5.57;;
78893;SDS011;68282;42.698;23.350;2024-02-26T11:55:03;7.45;;;4.82;;
78893;SDS011;68282;42.698;23.350;2024-02-26T11:59:54;8.38;;;4.72;;
78893;SDS011;68282;42.698;23.350;2024-02-26T12:02:39;7.15;;;5.38;;
78893;SDS011;68282;42.698;23.350;2024-02-26T12:05:07;5.85;;;4.50;;
78893;SDS011;68282;42.698;23.350;2024-02-26T12:07:46;6.70;;;4.60;;
78893;SDS011;68282;42.698;23.350;2024-02-26T12:10:21;10.68;;;5.25;;
78893;SDS011;68282;42.698;23.350;2024-02-26T12:12:54;7.63;;;5.50;;
78893;SDS011;68282;42.698;23.350;2024-02-26T12:15:23;8.02;;;4.95;;
78893;SDS011;68282;42.698;23.350;2024-02-26T12:17:49;7.00;;;4.30;;
78893;SDS011;68282;42.698;23.350;2024-02-26T12:20:16;10.35;;;5.25;;
78893;SDS011;68282;42.698;23.350;2024-02-26T12:22:46;8.25;;;5.20;;
78893;SDS011;68282;42.698;23.350;2024-02-26T12:25:13;9.60;;;4.43;;
78893;SDS011;68282;42.698;23.350;2024-02-26T12:27:39;8.48;;;4.13;;
78893;SDS011;68282;42.698;23.350;2024-02-26T12:30:05;5.82;;;3.85;;
78893;SDS011;68282;42.698;23.350;2024-02-26T12:32:31;6.82;;;4.53;;
78893;SDS011;68282;42.698;23.350;2024-02-26T12:34:57;8.35;;;4.53;;
78893;SDS011;68282;42.698;23.350;2024-02-26T12:37:25;6.43;;;4.68;;
78893;SDS011;68282;42.698;23.350;2024-02-26T12:39:51;6.47;;;4.30;;
78893;SDS011;68282;42.698;23.350;2024-02-26T12:42:16;6.22;;;4.07;;
78893;SDS011;68282;42.698;23.350;2024-02-26T12:44:44;8.77;;;4.47;;
78893;SDS011;68282;42.698;23.350;2024-02-26T12:47:11;8.48;;;5.20;;
78893;SDS011;68282;42.698;23.350;2024-02-26T12:49:47;8.23;;;4.28;;
78893;SDS011;68282;42.698;23.350;2024-02-26T12:52:13;8.40;;;3.72;;
78893;SDS011;68282;42.698;23.350;2024-02-26T12:54:41;6.90;;;4.80;;
78893;SDS011;68282;42.698;23.350;2024-02-26T12:57:08;9.00;;;6.28;;
78893;SDS011;68282;42.698;23.350;2024-02-26T12:59:34;14.18;;;7.30;;
78893;SDS011;68282;42.698;23.350;2024-02-26T13:02:01;10.55;;;5.63;;
78893;SDS011;68282;42.698;23.350;2024-02-26T13:04:28;27.25;;;15.20;;
78893;SDS011;68282;42.698;23.350;2024-02-26T13:06:55;17.20;;;9.52;;
78893;SDS011;68282;42.698;23.350;2024-02-26T13:09:27;23.25;;;12.63;;
78893;SDS011;68282;42.698;23.350;2024-02-26T13:11:55;22.83;;;12.50;;
78893;SDS011;68282;42.698;23.350;2024-02-26T13:14:21;14.23;;;7.55;;
78893;SDS011;68282;42.698;23.350;2024-02-26T13:16:56;19.48;;;10.60;;
78893;SDS011;68282;42.698;23.350;2024-02-26T13:19:24;11.70;;;8.05;;
78893;SDS011;68282;42.698;23.350;2024-02-26T13:21:50;8.38;;;5.15;;
78893;SDS011;68282;42.698;23.350;2024-02-26T13:24:15;8.80;;;5.47;;
78893;SDS011;68282;42.698;23.350;2024-02-26T13:26:41;9.30;;;5.80;;
78893;SDS011;68282;42.698;23.350;2024-02-26T13:29:07;7.28;;;5.82;;
78893;SDS011;68282;42.698;23.350;2024-02-26T13:31:41;7.45;;;4.80;;
78893;SDS011;68282;42.698;23.350;2024-02-26T13:34:06;10.75;;;5.13;;
78893;SDS011;68282;42.698;23.350;2024-02-26T13:36:32;9.63;;;5.38;;
78893;SDS011;68282;42.698;23.350;2024-02-26T13:38:57;6.88;;;4.47;;
78893;SDS011;68282;42.698;23.350;2024-02-26T13:41:23;7.47;;;5.07;;
78893;SDS011;68282;42.698;23.350;2024-02-26T13:43:49;11.95;;;5.78;;
78893;SDS011;68282;42.698;23.350;2024-02-26T13:46:15;7.63;;;5.25;;
78893;SDS011;68282;42.698;23.350;2024-02-26T13:48:42;8.68;;;5.72;;
78893;SDS011;68282;42.698;23.350;2024-02-26T13:51:08;6.32;;;4.85;;
78893;SDS011;68282;42.698;23.350;2024-02-26T13:53:34;10.30;;;6.30;;
78893;SDS011;68282;42.698;23.350;2024-02-26T13:55:59;6.80;;;4.43;;
78893;SDS011;68282;42.698;23.350;2024-02-26T13:58:26;9.20;;;4.85;;
78893;SDS011;68282;42.698;23.350;2024-02-26T14:00:52;11.90;;;7.75;;
78893;SDS011;68282;42.698;23.350;2024-02-26T14:03:19;10.50;;;5.32;;
78893;SDS011;68282;42.698;23.350;2024-02-26T14:05:45;10.05;;;6.07;;
78893;SDS011;68282;42.698;23.350;2024-02-26T14:08:11;9.85;;;5.38;;
78893;SDS011;68282;42.698;23.350;2024-02-26T14:10:36;6.57;;;4.10;;
78893;SDS011;68282;42.698;23.350;2024-02-26T14:13:02;10.23;;;6.82;;
78893;SDS011;68282;42.698;23.350;2024-02-26T14:15:28;7.10;;;4.40;;
78893;SDS011;68282;42.698;23.350;2024-02-26T14:17:54;8.68;;;5.28;;
78893;SDS011;68282;42.698;23.350;2024-02-26T14:20:24;8.75;;;5.93;;
78893;SDS011;68282;42.698;23.350;2024-02-26T14:22:50;7.68;;;4.18;;
78893;SDS011;68282;42.698;23.350;2024-02-26T14:25:20;4.82;;;3.55;;
78893;SDS011;68282;42.698;23.350;2024-02-26T14:27:46;11.77;;;5.50;;
78893;SDS011;68282;42.698;23.350;2024-02-26T14:30:12;11.88;;;4.80;;
78893;SDS011;68282;42.698;23.350;2024-02-26T14:32:38;7.93;;;4.60;;
78893;SDS011;68282;42.698;23.350;2024-02-26T14:35:07;9.10;;;5.32;;
78893;SDS011;68282;42.698;23.350;2024-02-26T14:37:37;7.85;;;4.75;;